createdAt,value
2018-11-02T00:01:35.785Z,74.60
2018-11-02T00:04:04.894Z,74.70
2018-11-02T00:06:34.534Z,74.80
2018-11-02T00:09:03.911Z,74.80
2018-11-02T00:11:33.354Z,74.70
2018-11-02T00:14:02.862Z,74.80
2018-11-02T00:16:32.191Z,74.90
2018-11-02T00:19:01.565Z,75.10
2018-11-02T00:21:30.869Z,75.30
2018-11-02T00:24:00.303Z,75.40
2018-11-02T00:26:29.544Z,75.60
2018-11-02T00:28:58.672Z,75.50
2018-11-02T00:31:28.052Z,75.60
2018-11-02T00:33:57.461Z,75.60
2018-11-02T00:36:26.883Z,75.70
2018-11-02T00:38:56.465Z,75.80
2018-11-02T00:41:25.684Z,75.80
2018-11-02T00:43:55.143Z,75.80
2018-11-02T00:46:24.524Z,75.90
2018-11-02T00:48:53.787Z,76.00
2018-11-02T00:51:22.998Z,76.30
2018-11-02T00:53:52.456Z,76.50
2018-11-02T00:56:22.116Z,76.80
2018-11-02T00:58:51.412Z,77.00
2018-11-02T01:01:20.740Z,77.20
2018-11-02T01:03:50.021Z,77.30
2018-11-02T01:06:19.193Z,77.40
2018-11-02T01:08:48.804Z,77.40
2018-11-02T01:11:18.181Z,77.60
2018-11-02T01:13:47.731Z,77.90
2018-11-02T01:16:17.161Z,77.90
2018-11-02T01:18:46.631Z,78.00
2018-11-02T01:21:16.440Z,78.00
2018-11-02T01:23:45.801Z,78.30
2018-11-02T01:26:15.159Z,78.50
2018-11-02T01:28:44.650Z,78.50
2018-11-02T01:31:14.191Z,78.60
2018-11-02T01:33:43.661Z,78.70
2018-11-02T01:36:13.081Z,78.80
2018-11-02T01:38:42.420Z,78.90
2018-11-02T01:41:11.788Z,78.90
2018-11-02T01:43:41.157Z,78.90
2018-11-02T01:46:10.442Z,78.80
2018-11-02T01:48:39.878Z,78.70
2018-11-02T01:51:09.277Z,78.70
2018-11-02T01:53:38.493Z,78.80
2018-11-02T01:56:07.985Z,78.80
2018-11-02T01:58:37.388Z,78.80
2018-11-02T02:01:06.841Z,78.80
2018-11-02T02:03:36.060Z,79.00
2018-11-02T02:06:05.796Z,79.00
2018-11-02T02:08:35.114Z,79.20
2018-11-02T02:11:04.311Z,79.40
2018-11-02T02:13:33.604Z,79.60
2018-11-02T02:16:02.932Z,79.70
2018-11-02T02:18:32.286Z,79.80
2018-11-02T02:21:01.503Z,80.00
2018-11-02T02:23:30.965Z,80.10
2018-11-02T02:26:00.308Z,80.10
2018-11-02T02:28:29.728Z,80.10
2018-11-02T02:30:59.236Z,80.10
2018-11-02T02:33:28.635Z,80.10
2018-11-02T02:35:58.013Z,80.00
2018-11-02T02:38:27.477Z,80.10
2018-11-02T02:40:56.834Z,80.50
2018-11-02T02:43:26.009Z,80.70
2018-11-02T02:45:55.571Z,80.60
2018-11-02T02:48:24.973Z,80.70
2018-11-02T02:50:54.071Z,80.90
2018-11-02T02:53:23.474Z,80.90
2018-11-02T02:55:52.941Z,81.10
2018-11-02T02:58:22.194Z,81.30
2018-11-02T03:00:51.864Z,81.40
2018-11-02T03:03:21.145Z,81.80
2018-11-02T03:05:50.570Z,82.20
2018-11-02T03:08:19.736Z,82.40
2018-11-02T03:10:49.195Z,82.70
2018-11-02T03:13:18.559Z,82.90
2018-11-02T03:15:47.798Z,83.00
2018-11-02T03:18:17.113Z,83.20
2018-11-02T03:20:46.355Z,83.30
2018-11-02T03:23:15.905Z,83.20
2018-11-02T03:25:45.060Z,83.50
2018-11-02T03:28:14.339Z,83.90
2018-11-02T03:30:43.733Z,84.00
2018-11-02T03:33:13.081Z,84.20
2018-11-02T03:35:42.601Z,84.20
2018-11-02T03:38:11.820Z,84.20
2018-11-02T03:40:41.072Z,84.30
2018-11-02T03:43:10.513Z,84.40
2018-11-02T03:45:39.952Z,84.60
2018-11-02T03:48:09.282Z,84.70
2018-11-02T03:50:38.682Z,85.10
2018-11-02T03:53:08.041Z,85.40
2018-11-02T03:55:37.310Z,85.40
2018-11-02T03:58:06.797Z,85.50
2018-11-02T04:00:36.323Z,85.60
2018-11-02T04:03:06.029Z,85.60
2018-11-02T04:05:35.314Z,85.70
2018-11-02T04:08:04.629Z,85.70
2018-11-02T04:10:34.139Z,85.80
2018-11-02T04:13:03.286Z,86.00
2018-11-02T04:15:32.734Z,86.40
2018-11-02T04:18:01.917Z,87.20
2018-11-02T04:20:31.234Z,87.50
2018-11-02T04:23:00.495Z,87.40
2018-11-02T04:25:30.245Z,87.30
2018-11-02T04:27:59.651Z,87.30
2018-11-02T04:30:28.980Z,87.20
2018-11-02T04:32:58.473Z,87.20
2018-11-02T04:35:27.876Z,87.40
2018-11-02T04:37:57.262Z,87.40
2018-11-02T04:40:27.074Z,87.30
2018-11-02T04:42:56.203Z,87.10
2018-11-02T04:45:41.494Z,87.20
2018-11-02T04:48:12.303Z,87.10
2018-11-02T04:50:42.399Z,87.20
2018-11-02T04:53:12.176Z,87.10
2018-11-02T04:55:41.470Z,86.90
2018-11-02T04:58:10.807Z,86.60
2018-11-02T05:00:40.241Z,86.40
2018-11-02T05:03:09.713Z,86.40
2018-11-02T05:05:38.913Z,86.40
2018-11-02T05:08:08.451Z,86.60
2018-11-02T05:10:37.558Z,86.70
2018-11-02T05:13:06.914Z,86.60
2018-11-02T05:15:36.173Z,86.60
2018-11-02T05:18:05.527Z,86.40
2018-11-02T05:20:34.795Z,86.30
2018-11-02T05:23:03.980Z,86.50
2018-11-02T05:25:33.315Z,87.10
2018-11-02T05:28:02.526Z,87.80
2018-11-02T05:30:31.863Z,87.90
2018-11-02T05:33:01.017Z,88.50
2018-11-02T05:35:30.204Z,88.70
2018-11-02T05:37:59.538Z,89.60
2018-11-02T05:40:28.714Z,90.10
2018-11-02T05:42:57.935Z,90.30
2018-11-02T05:45:30.822Z,90.60
2018-11-02T05:48:00.202Z,90.60
2018-11-02T05:50:29.478Z,90.60
2018-11-02T05:52:59.105Z,90.70
2018-11-02T05:55:28.282Z,90.60
2018-11-02T05:57:57.607Z,90.60
2018-11-02T06:00:27.041Z,90.50
2018-11-02T06:02:56.415Z,90.30
2018-11-02T06:05:25.723Z,90.30
2018-11-02T06:07:55.197Z,90.20
2018-11-02T06:10:24.636Z,90.10
2018-11-02T06:12:53.812Z,89.60
2018-11-02T06:15:23.469Z,88.80
2018-11-02T06:17:52.834Z,88.30
2018-11-02T06:20:22.042Z,87.10
2018-11-02T06:22:51.249Z,85.60
2018-11-02T06:25:20.739Z,84.60
2018-11-02T06:27:50.253Z,83.40
2018-11-02T06:30:19.666Z,82.50
2018-11-02T06:32:49.068Z,81.70
2018-11-02T06:35:18.089Z,81.20
2018-11-02T06:37:47.364Z,80.90
2018-11-02T06:40:16.952Z,80.60
2018-11-02T06:42:46.359Z,80.00
2018-11-02T06:45:15.726Z,79.00
2018-11-02T06:47:44.961Z,76.90
2018-11-02T06:50:14.403Z,75.30
2018-11-02T06:52:43.780Z,74.40
2018-11-02T06:55:13.168Z,72.80
2018-11-02T06:57:42.534Z,72.00
2018-11-02T07:00:13.673Z,70.90
2018-11-02T07:02:43.235Z,70.00
2018-11-02T07:05:12.615Z,68.10
2018-11-02T07:07:44.535Z,67.10
2018-11-02T07:10:13.479Z,66.10
2018-11-02T07:12:45.827Z,65.30
2018-11-02T07:15:15.233Z,64.10
2018-11-02T07:17:44.452Z,63.30
2018-11-02T07:20:13.715Z,62.30
2018-11-02T07:22:42.877Z,61.00
2018-11-02T07:25:12.046Z,61.10
2018-11-02T07:27:41.214Z,61.30
2018-11-02T07:30:11.275Z,61.50
2018-11-02T07:32:40.673Z,60.50
2018-11-02T07:35:10.900Z,60.20
2018-11-02T07:37:39.948Z,59.30
2018-11-02T07:40:10.629Z,58.20
2018-11-02T07:42:40.155Z,57.50
2018-11-02T07:45:09.976Z,56.40
2018-11-02T07:47:39.825Z,55.50
2018-11-02T07:50:10.747Z,54.50
2018-11-02T07:52:39.844Z,51.90
2018-11-02T07:55:10.616Z,48.00
2018-11-02T07:57:40.022Z,45.80
2018-11-02T08:00:14.360Z,42.40
2018-11-02T08:02:46.986Z,38.80
2018-11-02T08:05:16.740Z,35.90
2018-11-02T08:07:45.854Z,33.60
2018-11-02T08:10:14.911Z,31.20
2018-11-02T08:12:44.002Z,29.40
2018-11-02T08:15:13.746Z,28.70
2018-11-02T08:17:43.101Z,28.30
2018-11-02T08:20:13.450Z,27.50
2018-11-02T08:22:43.079Z,26.70
2018-11-02T08:25:12.786Z,25.80
2018-11-02T08:27:42.193Z,25.70
2018-11-02T08:30:12.265Z,25.30
2018-11-02T08:32:41.600Z,24.70
2018-11-02T08:35:12.534Z,24.90
2018-11-02T08:37:42.062Z,25.30
2018-11-02T08:40:12.785Z,26.40
2018-11-02T08:42:42.288Z,27.80
2018-11-02T08:45:11.920Z,29.00
2018-11-02T08:47:41.033Z,30.80
2018-11-02T08:50:11.034Z,32.00
2018-11-02T08:52:40.159Z,32.10
2018-11-02T08:55:09.430Z,29.80
2018-11-02T08:57:38.950Z,27.90
2018-11-02T09:00:09.928Z,25.70
2018-11-02T09:02:39.169Z,23.70
2018-11-02T09:05:08.567Z,22.10
2018-11-02T09:07:38.155Z,20.20
2018-11-02T09:10:09.428Z,19.60
2018-11-02T09:12:38.543Z,18.70
2018-11-02T09:15:07.935Z,17.40
2018-11-02T09:17:37.492Z,16.50
2018-11-02T09:20:06.912Z,15.20
2018-11-02T09:22:36.280Z,14.90
2018-11-02T09:25:06.231Z,14.70
2018-11-02T09:27:35.622Z,14.40
2018-11-02T09:30:04.880Z,14.10
2018-11-02T09:32:34.250Z,13.80
2018-11-02T09:35:03.746Z,13.30
2018-11-02T09:37:33.223Z,12.60
2018-11-02T09:40:02.856Z,12.50
2018-11-02T09:42:32.338Z,12.40
2018-11-02T09:45:02.000Z,12.10
2018-11-02T09:47:31.378Z,12.10
2018-11-02T09:50:00.744Z,11.70
2018-11-02T09:52:30.417Z,11.70
2018-11-02T09:54:59.899Z,11.90
2018-11-02T09:57:29.150Z,11.50
2018-11-02T09:59:58.286Z,11.30
2018-11-02T10:02:27.813Z,11.30
2018-11-02T10:04:56.955Z,11.70
2018-11-02T10:07:26.098Z,12.80
2018-11-02T10:09:55.487Z,13.70
2018-11-02T10:12:24.802Z,14.40
2018-11-02T10:14:54.327Z,14.80
2018-11-02T10:17:23.608Z,14.50
2018-11-02T10:19:53.112Z,13.90
2018-11-02T10:22:22.570Z,13.40
2018-11-02T10:24:52.172Z,12.90
2018-11-02T10:27:21.403Z,12.40
2018-11-02T10:29:50.765Z,12.50
2018-11-02T10:32:20.022Z,11.60
2018-11-02T10:34:49.534Z,11.10
2018-11-02T10:37:18.846Z,10.90
2018-11-02T10:39:48.208Z,11.50
2018-11-02T10:42:17.680Z,11.30
2018-11-02T10:44:47.150Z,12.00
2018-11-02T10:47:16.550Z,12.70
2018-11-02T10:49:45.941Z,13.50
2018-11-02T10:52:15.273Z,13.20
2018-11-02T10:54:44.747Z,13.00
2018-11-02T10:57:14.276Z,12.50
2018-11-02T10:59:43.679Z,12.20
2018-11-02T11:02:37.431Z,11.80
2018-11-02T11:05:07.713Z,11.20
2018-11-02T11:07:37.234Z,10.50
2018-11-02T11:10:08.456Z,10.20
2018-11-02T11:12:37.985Z,9.80
2018-11-02T11:15:07.721Z,9.60
2018-11-02T11:17:37.437Z,9.50
2018-11-02T11:20:12.601Z,9.40
2018-11-02T11:22:42.192Z,9.30
2018-11-02T11:25:13.454Z,9.10
2018-11-02T11:27:42.856Z,9.00
2018-11-02T11:30:19.585Z,8.90
2018-11-02T11:32:49.962Z,9.00
2018-11-02T11:35:19.976Z,9.10
2018-11-02T11:37:49.297Z,9.70
2018-11-02T11:40:20.223Z,9.20
2018-11-02T11:42:49.719Z,9.20
2018-11-02T11:45:19.816Z,9.50
2018-11-02T11:47:49.248Z,9.60
2018-11-02T11:50:27.746Z,9.80
2018-11-02T11:52:57.217Z,9.80
2018-11-02T11:55:26.442Z,9.90
2018-11-02T11:57:55.845Z,10.80
2018-11-02T12:00:25.238Z,12.10
2018-11-02T12:02:54.662Z,14.10
2018-11-02T12:05:24.571Z,16.20
2018-11-02T12:07:53.993Z,18.60
2018-11-02T12:10:24.505Z,20.70
2018-11-02T12:12:54.133Z,22.20
2018-11-02T12:15:24.173Z,23.50
2018-11-02T12:17:53.741Z,24.60
2018-11-02T12:20:26.923Z,25.80
2018-11-02T12:22:57.487Z,26.80
2018-11-02T12:25:26.954Z,27.50
2018-11-02T12:27:56.080Z,28.20
2018-11-02T12:30:25.587Z,29.00
2018-11-02T12:32:55.342Z,29.60
2018-11-02T12:35:24.794Z,30.00
2018-11-02T12:37:53.923Z,30.50
2018-11-02T12:40:24.235Z,29.80
2018-11-02T12:42:54.253Z,28.60
2018-11-02T12:45:23.750Z,26.40
2018-11-02T12:47:53.109Z,24.50
2018-11-02T12:50:29.362Z,23.30
2018-11-02T12:52:59.639Z,22.10
2018-11-02T12:55:28.918Z,21.50
2018-11-02T12:57:58.222Z,22.40
2018-11-02T13:00:28.561Z,24.00
2018-11-02T13:02:58.193Z,25.80
2018-11-02T13:05:27.445Z,27.20
2018-11-02T13:07:56.777Z,28.60
2018-11-02T13:10:27.094Z,29.70
2018-11-02T13:12:56.611Z,31.00
2018-11-02T13:15:26.503Z,31.80
2018-11-02T13:17:55.899Z,32.60
2018-11-02T13:20:25.396Z,33.70
2018-11-02T13:22:54.628Z,34.60
2018-11-02T13:25:23.933Z,35.80
2018-11-02T13:27:53.528Z,36.70
2018-11-02T13:30:25.053Z,37.60
2018-11-02T13:32:54.484Z,38.20
2018-11-02T13:35:23.791Z,38.60
2018-11-02T13:37:53.174Z,39.00
2018-11-02T13:40:22.476Z,39.50
2018-11-02T13:42:54.070Z,40.30
2018-11-02T13:45:23.557Z,41.00
2018-11-02T13:47:52.864Z,41.30
2018-11-02T13:50:22.234Z,41.80
2018-11-02T13:52:51.278Z,42.30
2018-11-02T13:55:20.575Z,42.80
2018-11-02T13:57:49.993Z,43.40
2018-11-02T14:00:19.690Z,43.70
2018-11-02T14:02:49.092Z,43.90
2018-11-02T14:05:18.713Z,44.20
2018-11-02T14:07:48.064Z,44.90
2018-11-02T14:10:17.661Z,45.50
2018-11-02T14:12:47.034Z,46.10
2018-11-02T14:15:17.122Z,46.40
2018-11-02T14:17:46.609Z,47.20
2018-11-02T14:20:16.121Z,47.80
2018-11-02T14:22:45.414Z,48.00
2018-11-02T14:25:15.866Z,48.00
2018-11-02T14:27:45.389Z,48.20
2018-11-02T14:30:16.088Z,48.20
2018-11-02T14:32:45.791Z,48.20
2018-11-02T14:35:15.109Z,48.30
2018-11-02T14:37:44.370Z,48.30
2018-11-02T14:40:13.788Z,48.40
2018-11-02T14:42:43.459Z,48.30
2018-11-02T14:45:16.633Z,48.40
2018-11-02T14:47:46.528Z,48.70
2018-11-02T14:50:15.848Z,49.10
2018-11-02T14:52:45.306Z,49.30
2018-11-02T14:55:14.711Z,49.70
2018-11-02T14:57:44.164Z,49.90
2018-11-02T15:00:13.751Z,50.10
2018-11-02T15:02:43.431Z,50.50
2018-11-02T15:05:13.903Z,50.80
2018-11-02T15:07:43.809Z,51.30
2018-11-02T15:10:13.290Z,51.60
2018-11-02T15:12:42.605Z,52.00
2018-11-02T15:15:12.126Z,52.50
2018-11-02T15:17:41.407Z,52.80
2018-11-02T15:20:12.456Z,53.40
2018-11-02T15:22:41.871Z,53.90
2018-11-02T15:25:11.463Z,54.40
2018-11-02T15:27:40.803Z,54.80
2018-11-02T15:30:11.725Z,55.20
2018-11-02T15:32:41.212Z,55.50
2018-11-02T15:35:11.231Z,56.00
2018-11-02T15:37:40.447Z,56.20
2018-11-02T15:40:11.057Z,56.40
2018-11-02T15:42:40.668Z,56.60
2018-11-02T15:45:12.112Z,57.10
2018-11-02T15:47:41.417Z,57.50
2018-11-02T15:50:11.687Z,57.90
2018-11-02T15:52:41.525Z,58.20
2018-11-02T15:55:11.982Z,58.30
2018-11-02T15:57:41.403Z,58.40
2018-11-02T16:00:20.696Z,58.60
2018-11-02T16:02:51.393Z,58.70
2018-11-02T16:05:22.725Z,58.90
2018-11-02T16:07:51.881Z,59.00
2018-11-02T16:10:21.438Z,59.20
2018-11-02T16:12:51.002Z,59.30
2018-11-02T16:15:20.413Z,59.40
2018-11-02T16:17:49.858Z,59.60
2018-11-02T16:20:19.143Z,59.80
2018-11-02T16:22:48.802Z,59.90
2018-11-02T16:25:18.261Z,60.00
2018-11-02T16:27:47.437Z,60.30
2018-11-02T16:30:16.840Z,60.50
2018-11-02T16:32:46.367Z,61.00
2018-11-02T16:35:15.657Z,61.20
2018-11-02T16:37:45.029Z,61.60
2018-11-02T16:40:16.190Z,62.00
2018-11-02T16:42:46.214Z,62.40
2018-11-02T16:45:16.022Z,62.50
2018-11-02T16:47:45.542Z,62.70
2018-11-02T16:50:15.700Z,62.70
2018-11-02T16:52:45.707Z,62.90
2018-11-02T16:55:15.218Z,63.10
2018-11-02T16:57:44.960Z,63.30
2018-11-02T17:00:23.961Z,63.50
2018-11-02T17:02:53.827Z,63.50
2018-11-02T17:05:23.437Z,63.80
2018-11-02T17:07:52.957Z,63.90
2018-11-02T17:10:22.455Z,64.10
2018-11-02T17:12:51.782Z,64.30
2018-11-02T17:15:20.916Z,64.50
2018-11-02T17:17:50.344Z,64.50
2018-11-02T17:20:19.741Z,64.50
2018-11-02T17:22:48.955Z,64.50
2018-11-02T17:25:18.547Z,64.70
2018-11-02T17:27:47.852Z,64.70
2018-11-02T17:30:18.356Z,64.80
2018-11-02T17:32:48.062Z,64.80
2018-11-02T17:35:19.728Z,64.80
2018-11-02T17:37:49.168Z,64.80
2018-11-02T17:40:18.532Z,64.90
2018-11-02T17:42:47.763Z,65.30
2018-11-02T17:45:17.131Z,65.60
2018-11-02T17:47:46.660Z,65.80
2018-11-02T17:50:16.187Z,66.00
2018-11-02T17:52:45.701Z,66.50
2018-11-02T17:55:15.364Z,66.70
2018-11-02T17:57:44.679Z,66.90
2018-11-02T18:00:14.626Z,66.80
2018-11-02T18:02:43.934Z,66.70
2018-11-02T18:05:13.441Z,66.80
2018-11-02T18:07:42.629Z,66.90
2018-11-02T18:10:13.448Z,67.30
2018-11-02T18:12:42.737Z,67.70
2018-11-02T18:15:13.098Z,68.10
2018-11-02T18:17:42.579Z,68.40
2018-11-02T18:20:13.983Z,68.70
2018-11-02T18:22:43.549Z,68.60
2018-11-02T18:25:13.041Z,68.70
2018-11-02T18:27:42.937Z,68.80
2018-11-02T18:30:12.803Z,69.00
2018-11-02T18:32:42.374Z,69.00
2018-11-02T18:35:12.570Z,69.00
2018-11-02T18:37:41.839Z,69.00
2018-11-02T18:40:12.679Z,69.10
2018-11-02T18:42:42.149Z,69.10
2018-11-02T18:45:15.039Z,69.30
2018-11-02T18:47:51.391Z,69.00
2018-11-02T18:50:21.885Z,69.30
2018-11-02T18:52:51.425Z,69.50
2018-11-02T18:55:21.129Z,69.60
2018-11-02T18:57:50.484Z,69.70
2018-11-02T19:00:19.931Z,69.70
2018-11-02T19:02:49.270Z,69.70
2018-11-02T19:05:19.487Z,69.90
2018-11-02T19:07:48.810Z,70.70
2018-11-02T19:10:18.065Z,71.40
2018-11-02T19:12:47.479Z,72.00
2018-11-02T19:15:17.984Z,72.80
2018-11-02T19:17:47.292Z,73.90
2018-11-02T19:20:16.753Z,75.70
2018-11-02T19:22:46.311Z,75.30
2018-11-02T19:25:16.431Z,75.30
2018-11-02T19:27:48.331Z,75.80
2018-11-02T19:30:17.658Z,76.00
2018-11-02T19:32:47.101Z,76.40
2018-11-02T19:35:16.513Z,76.70
2018-11-02T19:37:45.619Z,77.30
2018-11-02T19:40:15.923Z,78.00
2018-11-02T19:42:45.567Z,78.10
2018-11-02T19:45:15.214Z,78.30
2018-11-02T19:48:01.343Z,78.50
2018-11-02T19:50:30.705Z,78.80
2018-11-02T19:53:00.270Z,79.20
2018-11-02T19:55:29.507Z,79.50
2018-11-02T19:57:58.881Z,79.60
2018-11-02T20:00:28.045Z,79.90
2018-11-02T20:02:57.452Z,80.10
2018-11-02T20:05:26.577Z,80.20
2018-11-02T20:07:55.877Z,80.70
2018-11-02T20:10:25.194Z,81.10
2018-11-02T20:12:54.555Z,81.50
2018-11-02T20:15:23.871Z,81.60
2018-11-02T20:17:53.376Z,81.60
2018-11-02T20:20:22.553Z,81.90
2018-11-02T20:22:51.941Z,82.70
2018-11-02T20:25:21.631Z,83.20
2018-11-02T20:27:50.958Z,83.60
2018-11-02T20:30:21.501Z,83.90
2018-11-02T20:32:50.832Z,84.20
2018-11-02T20:35:20.200Z,84.40
2018-11-02T20:37:49.588Z,84.50
2018-11-02T20:40:19.638Z,84.50
2018-11-02T20:42:48.826Z,84.80
2018-11-02T20:45:18.213Z,85.10
2018-11-02T20:47:47.526Z,85.40
2018-11-02T20:50:17.123Z,85.60
2018-11-02T20:52:46.544Z,85.80
2018-11-02T20:55:16.275Z,85.90
2018-11-02T20:57:45.441Z,86.30
2018-11-02T21:00:22.237Z,86.40
2018-11-02T21:02:51.805Z,86.40
2018-11-02T21:05:21.687Z,86.50
2018-11-02T21:07:51.526Z,86.60
2018-11-02T21:10:21.356Z,86.50
2018-11-02T21:12:50.598Z,86.60
2018-11-02T21:15:21.125Z,86.70
2018-11-02T21:17:50.897Z,86.80
2018-11-02T21:20:21.636Z,86.90
2018-11-02T21:22:50.948Z,87.10
2018-11-02T21:25:20.185Z,87.30
2018-11-02T21:27:49.873Z,88.20
2018-11-02T21:30:23.696Z,87.60
2018-11-02T21:32:53.682Z,87.60
2018-11-02T21:35:23.607Z,87.60
2018-11-02T21:37:53.127Z,87.70
2018-11-02T21:40:23.760Z,87.90
2018-11-02T21:42:53.234Z,88.10
2018-11-02T21:45:23.735Z,88.30
2018-11-02T21:47:53.059Z,88.30
2018-11-02T21:50:22.675Z,88.40
2018-11-02T21:52:52.096Z,88.40
2018-11-02T21:55:21.390Z,88.30
2018-11-02T21:57:50.662Z,88.30
2018-11-02T22:00:21.344Z,88.30
2018-11-02T22:02:50.521Z,88.50
2018-11-02T22:05:19.818Z,88.50
2018-11-02T22:07:49.975Z,88.70
2018-11-02T22:10:19.550Z,88.60
2018-11-02T22:12:48.962Z,88.60
2018-11-02T22:15:18.275Z,88.80
2018-11-02T22:17:47.756Z,89.00
2018-11-02T22:20:17.357Z,89.10
2018-11-02T22:22:46.969Z,89.20
2018-11-02T22:25:16.572Z,89.30
2018-11-02T22:27:45.883Z,89.20
2018-11-02T22:30:18.315Z,89.30
2018-11-02T22:32:47.820Z,89.50
2018-11-02T22:35:17.270Z,89.70
2018-11-02T22:37:46.990Z,89.80
2018-11-02T22:40:16.234Z,89.90
2018-11-02T22:42:45.624Z,89.80
2018-11-02T22:45:15.715Z,89.80
2018-11-02T22:48:02.305Z,89.80
2018-11-02T22:50:31.810Z,89.90
2018-11-02T22:53:01.123Z,90.10
2018-11-02T22:55:30.661Z,90.20
2018-11-02T22:58:00.056Z,90.20
2018-11-02T23:00:29.415Z,90.30
2018-11-02T23:02:58.803Z,90.30
2018-11-02T23:05:28.473Z,90.30
2018-11-02T23:07:57.717Z,90.30
2018-11-02T23:10:27.143Z,90.40
2018-11-02T23:12:56.472Z,90.40
2018-11-02T23:15:25.762Z,90.40
2018-11-02T23:17:55.062Z,90.80
2018-11-02T23:20:24.672Z,90.40
2018-11-02T23:22:54.117Z,90.50
2018-11-02T23:25:23.656Z,90.50
2018-11-02T23:27:53.126Z,90.60
2018-11-02T23:30:22.289Z,90.60
2018-11-02T23:32:51.666Z,90.70
2018-11-02T23:35:21.246Z,90.70
2018-11-02T23:37:50.767Z,90.40
2018-11-02T23:40:20.069Z,89.10
2018-11-02T23:42:49.310Z,87.60
2018-11-02T23:45:18.791Z,87.30
2018-11-02T23:47:57.756Z,87.10
2018-11-02T23:50:27.019Z,87.20
2018-11-02T23:52:56.512Z,86.90
2018-11-02T23:55:25.808Z,87.00
2018-11-02T23:57:55.234Z,87.10
